createdAt,value
2019-06-07T00:01:58.364Z,99.90
2019-06-07T00:04:03.630Z,99.90
2019-06-07T00:06:15.088Z,99.90
2019-06-07T00:08:24.974Z,99.90
2019-06-07T00:10:35.957Z,99.90
2019-06-07T00:12:33.229Z,99.90
2019-06-07T00:14:38.453Z,99.90
2019-06-07T00:16:43.631Z,99.90
2019-06-07T00:18:48.756Z,99.90
2019-06-07T00:20:53.994Z,99.90
2019-06-07T00:22:59.202Z,99.90
2019-06-07T00:25:04.971Z,99.90
2019-06-07T00:27:11.310Z,99.90
2019-06-07T00:29:18.991Z,99.90
2019-06-07T00:31:24.777Z,99.90
2019-06-07T00:33:30.468Z,99.90
2019-06-07T00:35:35.648Z,99.90
2019-06-07T00:37:40.830Z,99.90
2019-06-07T00:39:45.981Z,99.90
2019-06-07T00:41:51.486Z,99.90
2019-06-07T00:43:56.967Z,99.90
2019-06-07T00:46:02.404Z,99.90
2019-06-07T00:48:07.701Z,99.90
2019-06-07T00:50:16.480Z,99.90
2019-06-07T00:53:11.596Z,99.90
2019-06-07T00:54:28.674Z,99.90
2019-06-07T00:56:34.147Z,99.90
2019-06-07T00:58:39.594Z,99.90
2019-06-07T01:00:44.766Z,99.90
2019-06-07T01:02:50.194Z,99.90
2019-06-07T01:04:55.791Z,99.90
2019-06-07T01:07:01.243Z,99.90
2019-06-07T01:09:08.266Z,99.90
2019-06-07T01:11:13.641Z,99.90
2019-06-07T01:13:22.333Z,99.90
2019-06-07T01:15:29.133Z,99.90
2019-06-07T01:17:43.501Z,99.90
2019-06-07T01:19:40.777Z,99.90
2019-06-07T01:21:46.199Z,99.90
2019-06-07T01:24:10.746Z,99.90
2019-06-07T01:25:58.767Z,99.90
2019-06-07T01:28:04.294Z,99.90
2019-06-07T01:30:10.982Z,99.90
2019-06-07T01:32:17.455Z,99.90
2019-06-07T01:34:25.688Z,99.90
2019-06-07T01:36:31.144Z,99.90
2019-06-07T01:38:36.432Z,99.90
2019-06-07T01:40:41.652Z,99.90
2019-06-07T01:42:47.122Z,99.90
2019-06-07T01:44:52.694Z,99.90
2019-06-07T01:46:58.218Z,99.90
2019-06-07T01:49:03.402Z,99.90
2019-06-07T01:51:08.903Z,99.90
2019-06-07T01:53:14.100Z,99.90
2019-06-07T01:55:23.099Z,99.90
2019-06-07T01:57:38.337Z,99.90
2019-06-07T01:59:33.865Z,99.90
2019-06-07T02:01:39.375Z,99.90
2019-06-07T02:03:44.527Z,99.90
2019-06-07T02:05:49.967Z,99.90
2019-06-07T02:07:55.122Z,99.90
2019-06-07T02:10:00.265Z,99.90
2019-06-07T02:12:25.165Z,99.90
2019-06-07T02:14:12.819Z,99.90
2019-06-07T02:16:19.349Z,99.90
2019-06-07T02:18:28.085Z,99.90
2019-06-07T02:20:34.543Z,99.90
2019-06-07T02:22:39.695Z,99.90
2019-06-07T02:24:45.127Z,99.90
2019-06-07T02:26:50.311Z,99.90
2019-06-07T02:28:55.503Z,99.90
2019-06-07T02:31:00.868Z,99.90
2019-06-07T02:33:06.123Z,99.90
2019-06-07T02:35:11.363Z,99.90
2019-06-07T02:37:16.790Z,99.90
2019-06-07T02:39:25.254Z,99.90
2019-06-07T02:41:35.477Z,99.90
2019-06-07T02:43:37.063Z,99.90
2019-06-07T02:45:43.869Z,99.90
2019-06-07T02:47:49.385Z,99.90
2019-06-07T02:49:54.815Z,99.90
2019-06-07T02:52:00.389Z,99.90
2019-06-07T02:54:05.968Z,99.90
2019-06-07T02:56:37.922Z,99.90
2019-06-07T02:58:18.453Z,99.90
2019-06-07T03:01:04.123Z,99.90
2019-06-07T03:02:53.671Z,99.90
2019-06-07T03:04:59.044Z,99.90
2019-06-07T03:07:04.471Z,99.90
2019-06-07T03:09:10.244Z,99.90
2019-06-07T03:11:16.784Z,99.90
2019-06-07T03:13:23.336Z,99.90
2019-06-07T03:15:39.250Z,99.90
2019-06-07T03:17:59.116Z,99.90
2019-06-07T03:20:07.038Z,99.90
2019-06-07T03:22:12.486Z,99.90
2019-06-07T03:24:18.003Z,99.90
2019-06-07T03:26:27.457Z,99.90
2019-06-07T03:28:36.085Z,99.90
2019-06-07T03:30:59.989Z,99.90
2019-06-07T03:32:48.413Z,99.90
2019-06-07T03:34:53.999Z,99.90
2019-06-07T03:36:59.463Z,99.90
2019-06-07T03:39:06.797Z,99.90
2019-06-07T03:41:12.001Z,99.90
2019-06-07T03:43:17.408Z,99.90
2019-06-07T03:45:23.138Z,99.90
2019-06-07T03:47:31.940Z,99.90
2019-06-07T03:49:37.527Z,99.90
2019-06-07T03:51:42.425Z,99.90
2019-06-07T03:53:47.963Z,99.90
2019-06-07T03:55:53.444Z,99.90
2019-06-07T03:58:30.653Z,99.90
2019-06-07T04:00:06.952Z,99.90
2019-06-07T04:02:12.408Z,99.90
2019-06-07T04:04:17.611Z,99.90
2019-06-07T04:06:23.150Z,99.90
2019-06-07T04:08:28.316Z,99.90
2019-06-07T04:10:55.727Z,99.90
2019-06-07T04:12:44.092Z,99.90
2019-06-07T04:14:48.146Z,99.90
2019-06-07T04:16:53.631Z,99.90
2019-06-07T04:18:59.087Z,99.90
2019-06-07T04:21:04.722Z,99.90
2019-06-07T04:23:27.318Z,99.90
2019-06-07T04:25:16.875Z,99.90
2019-06-07T04:27:22.108Z,99.90
2019-06-07T04:29:33.991Z,99.90
2019-06-07T04:31:36.282Z,99.90
2019-06-07T04:33:43.606Z,99.90
2019-06-07T04:35:48.294Z,99.90
2019-06-07T04:37:53.833Z,99.90
2019-06-07T04:40:00.938Z,99.90
2019-06-07T04:42:06.116Z,99.90
2019-06-07T04:44:11.828Z,99.90
2019-06-07T04:46:17.922Z,99.90
2019-06-07T04:48:23.231Z,99.90
2019-06-07T04:50:33.907Z,99.90
2019-06-07T04:52:42.714Z,99.90
2019-06-07T04:54:45.920Z,99.90
2019-06-07T04:56:51.110Z,99.90
2019-06-07T04:58:56.304Z,99.90
2019-06-07T05:01:03.629Z,99.90
2019-06-07T05:03:08.316Z,99.90
2019-06-07T05:05:13.637Z,99.90
2019-06-07T05:07:18.762Z,99.90
2019-06-07T05:09:23.942Z,99.90
2019-06-07T05:11:31.483Z,99.90
2019-06-07T05:13:38.997Z,99.90
2019-06-07T05:15:44.125Z,99.90
2019-06-07T05:17:49.357Z,99.90
2019-06-07T05:19:55.087Z,99.90
2019-06-07T05:22:06.974Z,99.90
2019-06-07T05:24:12.266Z,99.90
2019-06-07T05:26:17.770Z,99.90
2019-06-07T05:28:23.835Z,99.90
2019-06-07T05:32:46.726Z,99.90
2019-06-07T05:34:51.859Z,99.90
2019-06-07T05:37:11.116Z,99.90
2019-06-07T05:39:05.847Z,99.90
2019-06-07T05:41:11.090Z,99.90
2019-06-07T05:43:27.658Z,99.90
2019-06-07T05:45:38.465Z,99.90
2019-06-07T05:47:50.167Z,99.90
2019-06-07T05:49:50.236Z,99.90
2019-06-07T05:51:57.367Z,99.90
2019-06-07T05:54:07.250Z,99.90
2019-06-07T05:56:13.082Z,99.90
2019-06-07T05:58:19.484Z,99.90
2019-06-07T06:00:25.220Z,99.90
2019-06-07T06:02:30.936Z,99.90
2019-06-07T06:04:39.301Z,99.90
2019-06-07T06:06:46.891Z,99.90
2019-06-07T06:08:51.533Z,99.90
2019-06-07T06:10:57.145Z,99.90
2019-06-07T06:13:03.242Z,99.90
2019-06-07T06:15:10.235Z,99.90
2019-06-07T06:17:16.066Z,99.90
2019-06-07T06:19:21.831Z,99.90
2019-06-07T06:21:27.191Z,99.90
2019-06-07T06:23:32.338Z,99.90
2019-06-07T06:25:41.239Z,99.90
2019-06-07T06:29:52.488Z,99.90
2019-06-07T06:34:05.415Z,99.90
2019-06-07T06:36:10.765Z,99.90
2019-06-07T06:38:17.994Z,99.90
2019-06-07T06:40:23.920Z,99.90
2019-06-07T06:42:29.056Z,99.90
2019-06-07T06:44:34.275Z,99.90
2019-06-07T06:46:46.155Z,99.90
2019-06-07T06:48:51.724Z,99.90
2019-06-07T06:50:53.201Z,99.90
2019-06-07T06:52:58.335Z,99.90
2019-06-07T06:55:03.552Z,99.90
2019-06-07T06:57:19.413Z,99.90
2019-06-07T06:59:38.083Z,99.90
2019-06-07T07:01:23.446Z,99.90
2019-06-07T07:03:56.799Z,99.90
2019-06-07T07:05:37.551Z,99.90
2019-06-07T07:07:45.129Z,99.90
2019-06-07T07:09:54.757Z,99.90
2019-06-07T07:12:10.907Z,99.90
2019-06-07T07:14:03.992Z,99.90
2019-06-07T07:16:09.167Z,99.90
2019-06-07T07:18:14.962Z,99.40
2019-06-07T07:20:20.140Z,99.90
2019-06-07T07:22:25.274Z,99.90
2019-06-07T07:24:30.418Z,99.90
2019-06-07T07:26:35.686Z,99.90
2019-06-07T07:28:42.824Z,93.40
2019-06-07T07:30:56.428Z,99.90
2019-06-07T07:33:01.438Z,99.90
2019-06-07T07:35:06.682Z,93.10
2019-06-07T07:37:11.896Z,92.40
2019-06-07T07:39:17.321Z,99.90
2019-06-07T07:41:22.606Z,99.90
2019-06-07T07:43:27.867Z,90.30
2019-06-07T07:45:33.035Z,99.10
2019-06-07T07:47:58.461Z,90.70
2019-06-07T07:49:47.536Z,95.10
2019-06-07T07:51:56.103Z,99.90
2019-06-07T07:54:10.151Z,94.80
2019-06-07T07:56:06.073Z,91.00
2019-06-07T07:58:11.695Z,81.50
2019-06-07T08:00:49.715Z,73.40
2019-06-07T08:02:24.166Z,88.50
2019-06-07T08:05:12.128Z,73.50
2019-06-07T08:06:36.127Z,70.60
2019-06-07T08:08:41.259Z,65.10
2019-06-07T08:10:50.384Z,68.30
2019-06-07T08:13:16.257Z,73.90
2019-06-07T08:15:03.238Z,70.00
2019-06-07T08:17:07.000Z,71.10
2019-06-07T08:19:13.147Z,69.50
2019-06-07T08:21:25.787Z,64.60
2019-06-07T08:23:25.447Z,64.30
2019-06-07T08:25:30.568Z,67.70
2019-06-07T08:27:35.706Z,74.50
2019-06-07T08:29:45.643Z,65.50
2019-06-07T08:31:48.327Z,68.50
2019-06-07T08:33:58.050Z,64.60
2019-06-07T08:36:21.839Z,72.40
2019-06-07T08:38:25.787Z,68.90
2019-06-07T08:40:21.212Z,57.60
2019-06-07T08:42:37.145Z,64.40
2019-06-07T08:44:33.339Z,68.80
2019-06-07T08:46:38.504Z,59.10
2019-06-07T08:48:43.619Z,59.50
2019-06-07T08:50:48.752Z,71.20
2019-06-07T08:53:00.001Z,64.80
2019-06-07T08:55:04.493Z,62.30
2019-06-07T08:57:20.562Z,67.40
2019-06-07T08:59:14.382Z,77.00
2019-06-07T09:01:21.367Z,59.10
2019-06-07T09:03:26.510Z,66.30
2019-06-07T09:05:37.047Z,82.20
2019-06-07T09:07:42.410Z,68.60
2019-06-07T09:10:36.546Z,60.90
2019-06-07T09:13:48.049Z,74.30
2019-06-07T09:20:52.509Z,62.20
2019-06-07T09:23:06.212Z,71.20
2019-06-07T09:25:14.708Z,61.30
2019-06-07T09:27:12.607Z,66.00
2019-06-07T09:29:17.971Z,59.40
2019-06-07T09:31:23.100Z,62.80
2019-06-07T09:33:28.246Z,59.30
2019-06-07T09:35:33.486Z,59.70
2019-06-07T09:38:04.177Z,63.40
2019-06-07T09:39:46.080Z,61.10
2019-06-07T09:41:51.265Z,59.50
2019-06-07T09:44:19.106Z,63.40
2019-06-07T09:46:09.654Z,56.90
2019-06-07T09:48:15.895Z,58.50
2019-06-07T09:50:17.795Z,61.60
2019-06-07T09:52:23.598Z,63.80
2019-06-07T09:55:03.842Z,58.80
2019-06-07T09:56:36.688Z,63.80
2019-06-07T09:58:52.674Z,59.40
2019-06-07T10:00:49.913Z,57.70
2019-06-07T10:03:02.231Z,55.70
2019-06-07T10:05:06.995Z,64.50
2019-06-07T10:07:30.762Z,58.80
2019-06-07T10:10:09.201Z,54.00
2019-06-07T10:11:27.023Z,53.00
2019-06-07T10:13:32.196Z,57.30
2019-06-07T10:15:38.317Z,54.30
2019-06-07T10:17:43.434Z,57.60
2019-06-07T10:19:48.595Z,53.90
2019-06-07T10:21:53.836Z,59.30
2019-06-07T10:23:59.267Z,60.10
2019-06-07T10:26:05.966Z,56.90
2019-06-07T10:28:13.560Z,53.00
2019-06-07T10:30:21.590Z,56.30
2019-06-07T10:32:44.654Z,55.90
2019-06-07T10:34:57.538Z,55.80
2019-06-07T10:37:03.808Z,56.70
2019-06-07T10:39:10.940Z,50.30
2019-06-07T10:41:16.326Z,52.00
2019-06-07T10:43:21.446Z,54.40
2019-06-07T10:45:26.582Z,55.00
2019-06-07T10:47:31.711Z,54.80
2019-06-07T10:49:36.844Z,54.40
2019-06-07T10:51:41.987Z,52.70
2019-06-07T10:53:47.463Z,52.30
2019-06-07T10:55:52.599Z,53.40
2019-06-07T10:57:57.832Z,62.70
2019-06-07T11:00:03.465Z,57.30
2019-06-07T11:02:09.753Z,55.40
2019-06-07T11:04:14.967Z,54.00
2019-06-07T11:06:20.186Z,52.30
2019-06-07T14:56:35.580Z,62.40
2019-06-07T14:58:43.423Z,56.40
2019-06-07T15:00:48.657Z,56.50
2019-06-07T15:02:57.430Z,55.40
2019-06-07T15:05:03.410Z,54.30
2019-06-07T15:07:10.218Z,54.50
2019-06-07T15:09:15.422Z,53.60
2019-06-07T15:11:21.935Z,52.50
2019-06-07T15:13:27.541Z,54.70
2019-06-07T15:15:34.607Z,60.30
2019-06-07T15:17:42.515Z,57.20
2019-06-07T15:19:48.016Z,65.50
2019-06-07T15:21:53.322Z,59.50
2019-06-07T15:23:58.487Z,53.80
2019-06-07T15:26:03.783Z,55.00
2019-06-07T15:28:09.401Z,55.00
2019-06-07T15:30:15.523Z,58.80
2019-06-07T15:32:20.954Z,55.80
2019-06-07T15:34:29.218Z,56.20
2019-06-07T15:36:36.320Z,62.60
2019-06-07T15:38:41.924Z,57.70
2019-06-07T15:40:49.411Z,53.90
2019-06-07T15:42:57.394Z,56.90
2019-06-07T15:45:02.701Z,55.50
2019-06-07T15:47:07.975Z,53.50
2019-06-07T15:49:13.717Z,58.50
2019-06-07T15:51:20.506Z,62.40
2019-06-07T15:53:32.733Z,55.10
2019-06-07T15:55:43.885Z,55.10
2019-06-07T15:57:45.511Z,54.40
2019-06-07T15:59:50.834Z,52.10
2019-06-07T16:01:56.024Z,50.70
2019-06-07T16:04:01.437Z,49.30
2019-06-07T16:06:06.754Z,50.00
2019-06-07T17:01:28.823Z,52.10
2019-06-07T17:03:34.086Z,52.90
2019-06-07T17:05:39.553Z,53.60
2019-06-07T17:07:46.971Z,55.30
2019-06-07T17:09:53.236Z,55.20
2019-06-07T17:11:59.235Z,55.50
2019-06-07T17:14:05.863Z,57.10
2019-06-07T17:16:12.206Z,52.20
2019-06-07T17:18:17.415Z,53.10
2019-06-07T17:20:23.172Z,59.20
2019-06-07T17:22:28.444Z,54.40
2019-06-07T17:24:33.599Z,53.80
2019-06-07T17:26:39.404Z,54.40
2019-06-07T17:28:45.825Z,54.00
2019-06-07T17:30:50.986Z,54.20
2019-06-07T17:32:59.272Z,54.00
2019-06-07T17:35:03.048Z,53.10
2019-06-07T17:37:08.276Z,54.40
2019-06-07T17:39:13.406Z,53.40
2019-06-07T17:41:18.578Z,52.30
2019-06-07T17:43:23.845Z,54.50
2019-06-07T17:45:29.260Z,54.20
2019-06-07T17:47:34.499Z,55.80
2019-06-07T17:49:39.765Z,56.70
2019-06-07T17:51:45.859Z,56.40
2019-06-07T17:53:52.242Z,59.30
2019-06-07T17:55:57.419Z,61.10
2019-06-07T17:58:03.013Z,59.90
2019-06-07T18:00:27.764Z,62.70
2019-06-07T18:02:16.085Z,58.00
2019-06-07T18:04:21.347Z,62.70
2019-06-07T18:06:27.083Z,64.30
2019-06-07T18:08:32.521Z,62.20
2019-06-07T18:10:38.920Z,70.40
2019-06-07T18:12:44.098Z,77.20
2019-06-07T18:14:49.993Z,65.70
2019-06-07T18:16:55.187Z,68.10
2019-06-07T18:19:00.373Z,64.70
2019-06-07T18:21:05.626Z,59.70
2019-06-07T18:23:11.702Z,65.40
2019-06-07T18:25:16.944Z,62.70
2019-06-07T18:27:22.075Z,65.50
2019-06-07T18:29:27.247Z,72.20
2019-06-07T18:31:32.440Z,76.40
2019-06-07T18:33:37.570Z,80.20
2019-06-07T18:35:42.736Z,76.90
2019-06-07T18:37:48.916Z,88.90
2019-06-07T18:39:55.289Z,83.60
2019-06-07T18:42:00.955Z,94.40
2019-06-07T18:44:20.852Z,99.90
2019-06-07T18:46:15.370Z,99.60
2019-06-07T18:48:21.069Z,99.90
2019-06-07T18:50:26.391Z,99.90
2019-06-07T18:52:33.945Z,99.90
2019-06-07T18:54:39.450Z,99.90
2019-06-07T18:56:44.878Z,99.90
2019-06-07T18:58:51.067Z,99.90
2019-06-07T19:00:57.602Z,99.90
2019-06-07T19:03:06.687Z,99.90
2019-06-07T19:05:12.790Z,99.90
2019-06-07T19:07:22.678Z,99.90
2019-06-07T19:09:27.932Z,99.90
2019-06-07T19:11:33.654Z,99.90
2019-06-07T19:13:38.889Z,99.90
2019-06-07T19:15:44.231Z,99.90
2019-06-07T19:17:49.806Z,99.90
2019-06-07T19:19:56.192Z,99.90
2019-06-07T19:22:03.444Z,99.90
2019-06-07T19:24:08.844Z,99.90
2019-06-07T19:26:14.613Z,99.90
2019-06-07T19:28:19.833Z,99.90
2019-06-07T19:30:25.048Z,99.90
2019-06-07T19:32:36.337Z,99.90
2019-06-07T19:34:42.982Z,99.90
2019-06-07T19:36:49.195Z,99.90
2019-06-07T19:38:55.814Z,99.90
2019-06-07T19:41:18.176Z,99.90
2019-06-07T19:43:11.964Z,99.90
2019-06-07T19:45:29.580Z,99.90
2019-06-07T19:47:24.535Z,99.90
2019-06-07T19:49:37.105Z,99.90
2019-06-07T19:51:43.850Z,99.90
2019-06-07T19:53:51.406Z,99.90
2019-06-07T19:56:01.333Z,99.90
2019-06-07T19:58:09.924Z,99.90
2019-06-07T20:00:19.656Z,99.90
2019-06-07T20:02:24.936Z,99.90
2019-06-07T20:04:30.582Z,99.90
2019-06-07T20:06:35.978Z,99.90
2019-06-07T20:08:41.212Z,99.90
2019-06-07T20:10:48.868Z,99.90
2019-06-07T20:12:54.522Z,99.90
2019-06-07T20:15:18.945Z,99.90
2019-06-07T20:17:07.339Z,99.90
2019-06-07T20:19:12.578Z,99.90
2019-06-07T20:21:17.980Z,99.90
2019-06-07T20:23:23.163Z,99.90
2019-06-07T20:25:28.278Z,99.90
2019-06-07T20:27:33.436Z,99.90
2019-06-07T20:29:38.957Z,99.90
2019-06-07T20:31:46.451Z,99.90
2019-06-07T20:33:51.607Z,99.90
2019-06-07T20:35:56.863Z,99.90
2019-06-07T20:38:03.811Z,99.90
2019-06-07T20:40:23.564Z,99.90
2019-06-07T20:42:17.440Z,99.90
2019-06-07T20:44:24.382Z,99.90
2019-06-07T20:46:30.825Z,99.90
2019-06-07T20:48:36.511Z,99.90
2019-06-07T20:50:41.886Z,99.90
2019-06-07T20:52:47.023Z,99.90
2019-06-07T20:54:52.143Z,99.90
2019-06-07T20:56:58.947Z,99.90
2019-06-07T20:59:06.839Z,99.90
2019-06-07T21:01:15.435Z,99.90
2019-06-07T21:03:22.160Z,99.90
2019-06-07T21:05:27.754Z,99.90
2019-06-07T21:07:33.152Z,99.90
2019-06-07T21:09:38.389Z,99.90
2019-06-07T21:11:44.135Z,99.90
2019-06-07T21:13:49.579Z,99.90
2019-06-07T21:15:55.360Z,99.90
2019-06-07T21:18:00.676Z,99.90
2019-06-07T21:20:07.644Z,99.90
2019-06-07T21:22:12.906Z,99.90
2019-06-07T21:24:18.143Z,99.90
2019-06-07T21:26:23.378Z,99.90
2019-06-07T21:28:28.579Z,99.90
2019-06-07T21:30:33.905Z,99.90
2019-06-07T21:32:39.047Z,99.90
2019-06-07T21:34:44.250Z,99.90
2019-06-07T21:36:49.471Z,99.90
2019-06-07T21:38:54.706Z,99.90
2019-06-07T21:40:59.881Z,99.90
2019-06-07T21:43:06.264Z,99.90
2019-06-07T21:45:13.540Z,99.90
2019-06-07T21:47:18.780Z,99.90
2019-06-07T21:49:24.120Z,99.90
2019-06-07T21:51:29.355Z,99.90
2019-06-07T21:53:37.906Z,99.90
2019-06-07T21:55:43.095Z,99.90
2019-06-07T21:57:48.298Z,99.90
2019-06-07T21:59:53.494Z,99.90
2019-06-07T22:01:58.621Z,99.90
2019-06-07T22:04:03.783Z,99.90
2019-06-07T22:06:09.698Z,99.90
2019-06-07T22:08:19.919Z,99.90
2019-06-07T22:10:25.065Z,99.90
2019-06-07T22:12:30.232Z,99.90
2019-06-07T22:14:35.410Z,99.90
2019-06-07T22:16:40.591Z,99.90
2019-06-07T22:18:45.720Z,99.90
2019-06-07T22:20:50.867Z,99.90
2019-06-07T22:22:56.057Z,99.90
2019-06-07T22:25:01.366Z,99.90
2019-06-07T22:27:07.098Z,99.90
2019-06-07T22:29:12.461Z,99.90
2019-06-07T22:31:19.160Z,99.90
2019-06-07T22:33:24.468Z,99.90
2019-06-07T22:35:29.640Z,99.90
2019-06-07T22:37:34.779Z,99.90
2019-06-07T22:39:40.335Z,99.90
2019-06-07T22:41:45.554Z,99.90
2019-06-07T22:43:50.704Z,99.90
2019-06-07T22:45:56.142Z,99.90
2019-06-07T22:48:01.555Z,99.90
2019-06-07T22:50:08.561Z,99.90
2019-06-07T22:52:15.330Z,99.90
2019-06-07T22:54:20.706Z,99.90
2019-06-07T22:56:31.523Z,99.90
2019-06-07T22:58:37.019Z,99.90
2019-06-07T23:00:42.159Z,99.90
2019-06-07T23:02:47.866Z,99.90
2019-06-07T23:04:53.814Z,99.90
2019-06-07T23:06:59.400Z,99.90
2019-06-07T23:09:05.929Z,99.90
2019-06-07T23:11:11.414Z,99.90
2019-06-07T23:13:17.832Z,99.90
2019-06-07T23:15:23.420Z,99.90
2019-06-07T23:17:28.693Z,99.90
2019-06-07T23:19:33.966Z,99.90
2019-06-07T23:21:39.458Z,99.90
2019-06-07T23:23:44.595Z,99.90
2019-06-07T23:25:50.122Z,99.90
2019-06-07T23:27:55.265Z,99.90
2019-06-07T23:30:07.968Z,99.90
2019-06-07T23:32:07.371Z,99.90
2019-06-07T23:34:13.024Z,99.90
2019-06-07T23:36:19.291Z,99.90
2019-06-07T23:38:24.531Z,99.90
2019-06-07T23:40:30.153Z,99.90
2019-06-07T23:42:35.686Z,99.90
2019-06-07T23:44:40.892Z,99.90
2019-06-07T23:46:47.901Z,99.90
2019-06-07T23:48:53.425Z,99.90
2019-06-07T23:51:03.412Z,99.90
2019-06-07T23:53:09.076Z,99.90
2019-06-07T23:55:15.869Z,99.90
2019-06-07T23:57:22.643Z,99.90
2019-06-07T23:59:27.940Z,99.90
